Aviation Digital Data Service (ADDS)

Output produced by TAFs form (0134 UTC 23 August 2014)
found at http://aviationweather.gov/adds/tafs/
 
KHOB 230046Z 2301/2324 16012G20KT P6SM BKN080 
     TEMPO 2301/2303 VRB20G30KT 3SM TSRA BKN080CB 
     FM230300 18010KT P6SM BKN120 
     FM231800 18010G18KT P6SM FEW080